sensor_id;sensor_type;location;lat;lon;timestamp;P1;durP1;ratioP1;P2;durP2;ratioP2
2762;SDS011;1389;51.490;7.338;2023-11-19T00:00:57;637.10;;;170.50;;
2762;SDS011;1389;51.490;7.338;2023-11-19T00:03:24;636.53;;;170.27;;
2762;SDS011;1389;51.490;7.338;2023-11-19T00:05:50;635.97;;;170.43;;
2762;SDS011;1389;51.490;7.338;2023-11-19T00:08:17;635.00;;;169.63;;
2762;SDS011;1389;51.490;7.338;2023-11-19T00:10:43;634.40;;;169.60;;
2762;SDS011;1389;51.490;7.338;2023-11-19T00:13:09;634.10;;;170.30;;
2762;SDS011;1389;51.490;7.338;2023-11-19T00:15:36;633.50;;;171.10;;
2762;SDS011;1389;51.490;7.338;2023-11-19T00:18:02;633.20;;;170.35;;
2762;SDS011;1389;51.490;7.338;2023-11-19T00:20:30;632.40;;;170.20;;
2762;SDS011;1389;51.490;7.338;2023-11-19T00:22:56;630.35;;;168.90;;
2762;SDS011;1389;51.490;7.338;2023-11-19T00:25:23;629.50;;;169.50;;
2762;SDS011;1389;51.490;7.338;2023-11-19T00:27:50;628.20;;;168.80;;
2762;SDS011;1389;51.490;7.338;2023-11-19T00:30:16;626.40;;;168.50;;
2762;SDS011;1389;51.490;7.338;2023-11-19T00:32:43;625.20;;;167.90;;
2762;SDS011;1389;51.490;7.338;2023-11-19T00:35:10;625.35;;;168.57;;
2762;SDS011;1389;51.490;7.338;2023-11-19T00:37:39;623.60;;;166.90;;
2762;SDS011;1389;51.490;7.338;2023-11-19T00:40:08;623.60;;;167.63;;
2762;SDS011;1389;51.490;7.338;2023-11-19T00:42:36;623.00;;;167.20;;
2762;SDS011;1389;51.490;7.338;2023-11-19T00:45:02;622.10;;;166.80;;
2762;SDS011;1389;51.490;7.338;2023-11-19T00:47:29;621.60;;;167.10;;
2762;SDS011;1389;51.490;7.338;2023-11-19T00:49:56;621.60;;;167.18;;
2762;SDS011;1389;51.490;7.338;2023-11-19T00:52:23;627.17;;;179.95;;
2762;SDS011;1389;51.490;7.338;2023-11-19T00:54:49;619.25;;;166.27;;
2762;SDS011;1389;51.490;7.338;2023-11-19T00:57:16;619.17;;;167.07;;
2762;SDS011;1389;51.490;7.338;2023-11-19T00:59:42;618.00;;;167.00;;
2762;SDS011;1389;51.490;7.338;2023-11-19T01:02:09;616.65;;;165.60;;
2762;SDS011;1389;51.490;7.338;2023-11-19T01:04:35;617.40;;;166.70;;
2762;SDS011;1389;51.490;7.338;2023-11-19T01:07:02;616.30;;;165.30;;
2762;SDS011;1389;51.490;7.338;2023-11-19T01:09:32;615.38;;;165.43;;
2762;SDS011;1389;51.490;7.338;2023-11-19T01:12:00;614.13;;;164.65;;
2762;SDS011;1389;51.490;7.338;2023-11-19T01:14:27;614.10;;;165.32;;
2762;SDS011;1389;51.490;7.338;2023-11-19T01:16:53;613.63;;;165.10;;
2762;SDS011;1389;51.490;7.338;2023-11-19T01:19:23;612.40;;;164.10;;
2762;SDS011;1389;51.490;7.338;2023-11-19T01:21:50;612.10;;;163.77;;
2762;SDS011;1389;51.490;7.338;2023-11-19T01:24:16;612.20;;;164.50;;
2762;SDS011;1389;51.490;7.338;2023-11-19T01:26:43;611.55;;;164.43;;
2762;SDS011;1389;51.490;7.338;2023-11-19T01:29:13;611.30;;;163.70;;
2762;SDS011;1389;51.490;7.338;2023-11-19T01:31:42;610.60;;;163.80;;
2762;SDS011;1389;51.490;7.338;2023-11-19T01:34:09;611.45;;;164.48;;
2762;SDS011;1389;51.490;7.338;2023-11-19T01:36:39;610.70;;;164.05;;
2762;SDS011;1389;51.490;7.338;2023-11-19T01:39:06;610.40;;;164.10;;
2762;SDS011;1389;51.490;7.338;2023-11-19T01:41:34;608.90;;;162.90;;
2762;SDS011;1389;51.490;7.338;2023-11-19T01:44:01;608.60;;;162.70;;
2762;SDS011;1389;51.490;7.338;2023-11-19T01:46:27;608.22;;;162.63;;
2762;SDS011;1389;51.490;7.338;2023-11-19T01:48:54;608.20;;;162.40;;
2762;SDS011;1389;51.490;7.338;2023-11-19T01:51:21;608.00;;;163.80;;
2762;SDS011;1389;51.490;7.338;2023-11-19T01:53:48;606.60;;;161.82;;
2762;SDS011;1389;51.490;7.338;2023-11-19T01:56:15;606.83;;;162.50;;
2762;SDS011;1389;51.490;7.338;2023-11-19T01:58:42;605.60;;;161.40;;
2762;SDS011;1389;51.490;7.338;2023-11-19T02:01:10;606.60;;;162.20;;
2762;SDS011;1389;51.490;7.338;2023-11-19T02:03:37;606.42;;;162.85;;
2762;SDS011;1389;51.490;7.338;2023-11-19T02:06:04;606.70;;;163.05;;
2762;SDS011;1389;51.490;7.338;2023-11-19T02:08:31;605.25;;;161.45;;
2762;SDS011;1389;51.490;7.338;2023-11-19T02:10:57;605.80;;;162.80;;
2762;SDS011;1389;51.490;7.338;2023-11-19T02:13:25;605.60;;;162.30;;
2762;SDS011;1389;51.490;7.338;2023-11-19T02:15:52;604.30;;;161.40;;
2762;SDS011;1389;51.490;7.338;2023-11-19T02:20:45;603.50;;;160.20;;
2762;SDS011;1389;51.490;7.338;2023-11-19T02:23:13;603.10;;;159.90;;
2762;SDS011;1389;51.490;7.338;2023-11-19T02:25:39;603.30;;;160.88;;
2762;SDS011;1389;51.490;7.338;2023-11-19T02:28:06;603.53;;;161.05;;
2762;SDS011;1389;51.490;7.338;2023-11-19T02:30:33;602.85;;;160.50;;
2762;SDS011;1389;51.490;7.338;2023-11-19T02:32:59;603.00;;;161.30;;
2762;SDS011;1389;51.490;7.338;2023-11-19T02:35:31;602.30;;;161.07;;
2762;SDS011;1389;51.490;7.338;2023-11-19T02:37:58;602.10;;;160.80;;
2762;SDS011;1389;51.490;7.338;2023-11-19T02:40:29;601.60;;;160.80;;
2762;SDS011;1389;51.490;7.338;2023-11-19T02:42:55;602.00;;;161.10;;
2762;SDS011;1389;51.490;7.338;2023-11-19T02:45:23;601.75;;;161.80;;
2762;SDS011;1389;51.490;7.338;2023-11-19T02:47:50;601.00;;;160.90;;
2762;SDS011;1389;51.490;7.338;2023-11-19T02:50:20;600.55;;;161.98;;
2762;SDS011;1389;51.490;7.338;2023-11-19T02:52:53;599.80;;;160.45;;
2762;SDS011;1389;51.490;7.338;2023-11-19T02:55:21;600.50;;;162.70;;
2762;SDS011;1389;51.490;7.338;2023-11-19T02:57:49;599.75;;;160.68;;
2762;SDS011;1389;51.490;7.338;2023-11-19T03:00:16;599.65;;;161.27;;
2762;SDS011;1389;51.490;7.338;2023-11-19T03:02:46;598.40;;;160.20;;
2762;SDS011;1389;51.490;7.338;2023-11-19T03:05:14;598.00;;;160.60;;
2762;SDS011;1389;51.490;7.338;2023-11-19T03:07:42;596.10;;;158.90;;
2762;SDS011;1389;51.490;7.338;2023-11-19T03:10:11;595.42;;;158.88;;
2762;SDS011;1389;51.490;7.338;2023-11-19T03:12:39;595.30;;;159.20;;
2762;SDS011;1389;51.490;7.338;2023-11-19T03:15:06;594.40;;;158.40;;
2762;SDS011;1389;51.490;7.338;2023-11-19T03:17:34;593.85;;;157.60;;
2762;SDS011;1389;51.490;7.338;2023-11-19T03:20:00;592.95;;;157.10;;
2762;SDS011;1389;51.490;7.338;2023-11-19T03:22:27;592.90;;;158.17;;
2762;SDS011;1389;51.490;7.338;2023-11-19T03:24:53;593.57;;;158.67;;
2762;SDS011;1389;51.490;7.338;2023-11-19T03:27:20;592.25;;;157.40;;
2762;SDS011;1389;51.490;7.338;2023-11-19T03:29:46;592.35;;;157.98;;
2762;SDS011;1389;51.490;7.338;2023-11-19T03:32:12;591.50;;;156.90;;
2762;SDS011;1389;51.490;7.338;2023-11-19T03:34:39;591.22;;;157.30;;
2762;SDS011;1389;51.490;7.338;2023-11-19T03:37:06;590.28;;;156.70;;
2762;SDS011;1389;51.490;7.338;2023-11-19T03:39:32;590.42;;;157.30;;
2762;SDS011;1389;51.490;7.338;2023-11-19T03:41:59;589.70;;;155.80;;
2762;SDS011;1389;51.490;7.338;2023-11-19T03:44:26;589.88;;;156.30;;
2762;SDS011;1389;51.490;7.338;2023-11-19T03:46:53;589.80;;;155.90;;
2762;SDS011;1389;51.490;7.338;2023-11-19T03:49:19;589.57;;;155.10;;
2762;SDS011;1389;51.490;7.338;2023-11-19T03:51:46;590.80;;;157.30;;
2762;SDS011;1389;51.490;7.338;2023-11-19T03:54:12;590.90;;;156.80;;
2762;SDS011;1389;51.490;7.338;2023-11-19T03:56:38;591.00;;;155.77;;
2762;SDS011;1389;51.490;7.338;2023-11-19T03:59:05;592.10;;;155.90;;
2762;SDS011;1389;51.490;7.338;2023-11-19T04:01:31;593.05;;;156.98;;
2762;SDS011;1389;51.490;7.338;2023-11-19T04:03:57;592.72;;;155.63;;
2762;SDS011;1389;51.490;7.338;2023-11-19T04:06:25;593.50;;;156.60;;
2762;SDS011;1389;51.490;7.338;2023-11-19T04:08:52;593.00;;;156.10;;
2762;SDS011;1389;51.490;7.338;2023-11-19T04:11:18;592.92;;;157.18;;
2762;SDS011;1389;51.490;7.338;2023-11-19T04:13:44;591.80;;;155.50;;
2762;SDS011;1389;51.490;7.338;2023-11-19T04:16:11;592.10;;;156.00;;
2762;SDS011;1389;51.490;7.338;2023-11-19T04:18:37;591.40;;;155.20;;
2762;SDS011;1389;51.490;7.338;2023-11-19T04:21:05;591.75;;;155.75;;
2762;SDS011;1389;51.490;7.338;2023-11-19T04:23:32;591.87;;;155.23;;
2762;SDS011;1389;51.490;7.338;2023-11-19T04:25:58;592.13;;;155.60;;
2762;SDS011;1389;51.490;7.338;2023-11-19T04:28:24;591.10;;;153.60;;
2762;SDS011;1389;51.490;7.338;2023-11-19T04:30:52;591.10;;;153.35;;
2762;SDS011;1389;51.490;7.338;2023-11-19T04:33:18;592.50;;;156.25;;
2762;SDS011;1389;51.490;7.338;2023-11-19T04:35:45;590.30;;;153.23;;
2762;SDS011;1389;51.490;7.338;2023-11-19T04:38:11;591.55;;;153.98;;
2762;SDS011;1389;51.490;7.338;2023-11-19T04:40:37;590.40;;;153.30;;
2762;SDS011;1389;51.490;7.338;2023-11-19T04:43:04;590.65;;;154.40;;
2762;SDS011;1389;51.490;7.338;2023-11-19T04:45:30;589.00;;;152.40;;
2762;SDS011;1389;51.490;7.338;2023-11-19T04:47:57;584.00;;;145.52;;
2762;SDS011;1389;51.490;7.338;2023-11-19T04:50:24;584.20;;;145.60;;
2762;SDS011;1389;51.490;7.338;2023-11-19T04:52:52;584.17;;;146.90;;
2762;SDS011;1389;51.490;7.338;2023-11-19T04:55:19;582.90;;;144.90;;
2762;SDS011;1389;51.490;7.338;2023-11-19T04:57:45;583.70;;;145.82;;
2762;SDS011;1389;51.490;7.338;2023-11-19T05:00:12;583.35;;;144.20;;
2762;SDS011;1389;51.490;7.338;2023-11-19T05:02:39;578.53;;;136.50;;
2762;SDS011;1389;51.490;7.338;2023-11-19T05:05:05;578.87;;;136.40;;
2762;SDS011;1389;51.490;7.338;2023-11-19T05:07:31;602.87;;;174.30;;
2762;SDS011;1389;51.490;7.338;2023-11-19T05:09:58;578.50;;;135.43;;
2762;SDS011;1389;51.490;7.338;2023-11-19T05:12:25;577.37;;;134.70;;
2762;SDS011;1389;51.490;7.338;2023-11-19T05:14:52;576.22;;;134.93;;
2762;SDS011;1389;51.490;7.338;2023-11-19T05:17:19;575.20;;;133.65;;
2762;SDS011;1389;51.490;7.338;2023-11-19T05:19:45;575.20;;;134.30;;
2762;SDS011;1389;51.490;7.338;2023-11-19T05:22:13;575.00;;;134.17;;
2762;SDS011;1389;51.490;7.338;2023-11-19T05:24:39;574.10;;;132.98;;
2762;SDS011;1389;51.490;7.338;2023-11-19T05:27:06;573.80;;;132.00;;
2762;SDS011;1389;51.490;7.338;2023-11-19T05:29:33;573.20;;;131.20;;
2762;SDS011;1389;51.490;7.338;2023-11-19T05:32:00;573.60;;;131.13;;
2762;SDS011;1389;51.490;7.338;2023-11-19T05:34:27;574.70;;;132.43;;
2762;SDS011;1389;51.490;7.338;2023-11-19T05:36:54;574.42;;;130.82;;
2762;SDS011;1389;51.490;7.338;2023-11-19T05:39:20;574.70;;;129.80;;
2762;SDS011;1389;51.490;7.338;2023-11-19T05:41:47;574.85;;;129.43;;
2762;SDS011;1389;51.490;7.338;2023-11-19T05:44:13;575.70;;;130.85;;
2762;SDS011;1389;51.490;7.338;2023-11-19T05:46:39;574.70;;;129.10;;
2762;SDS011;1389;51.490;7.338;2023-11-19T05:49:11;570.78;;;122.85;;
2762;SDS011;1389;51.490;7.338;2023-11-19T05:51:38;570.17;;;122.40;;
2762;SDS011;1389;51.490;7.338;2023-11-19T05:54:08;571.30;;;123.60;;
2762;SDS011;1389;51.490;7.338;2023-11-19T05:56:35;571.20;;;122.90;;
2762;SDS011;1389;51.490;7.338;2023-11-19T05:59:02;566.60;;;115.23;;
2762;SDS011;1389;51.490;7.338;2023-11-19T06:01:34;567.80;;;116.20;;
2762;SDS011;1389;51.490;7.338;2023-11-19T06:04:00;567.10;;;115.95;;
2762;SDS011;1389;51.490;7.338;2023-11-19T06:06:27;568.70;;;117.60;;
2762;SDS011;1389;51.490;7.338;2023-11-19T06:08:54;567.30;;;114.70;;
2762;SDS011;1389;51.490;7.338;2023-11-19T06:11:20;569.97;;;115.78;;
2762;SDS011;1389;51.490;7.338;2023-11-19T06:13:47;572.85;;;120.68;;
2762;SDS011;1389;51.490;7.338;2023-11-19T06:16:15;570.50;;;113.70;;
2762;SDS011;1389;51.490;7.338;2023-11-19T06:18:42;572.35;;;114.68;;
2762;SDS011;1389;51.490;7.338;2023-11-19T06:21:09;573.63;;;114.60;;
2762;SDS011;1389;51.490;7.338;2023-11-19T06:23:36;575.50;;;115.70;;
2762;SDS011;1389;51.490;7.338;2023-11-19T06:26:02;576.28;;;114.07;;
2762;SDS011;1389;51.490;7.338;2023-11-19T06:28:30;578.08;;;113.70;;
2762;SDS011;1389;51.490;7.338;2023-11-19T06:30:57;579.30;;;113.38;;
2762;SDS011;1389;51.490;7.338;2023-11-19T06:33:24;579.80;;;113.70;;
2762;SDS011;1389;51.490;7.338;2023-11-19T06:35:50;580.10;;;112.80;;
2762;SDS011;1389;51.490;7.338;2023-11-19T06:38:16;580.53;;;112.82;;
2762;SDS011;1389;51.490;7.338;2023-11-19T06:40:43;582.67;;;113.30;;
2762;SDS011;1389;51.490;7.338;2023-11-19T06:43:09;584.90;;;112.00;;
2762;SDS011;1389;51.490;7.338;2023-11-19T06:45:36;585.20;;;112.35;;
2762;SDS011;1389;51.490;7.338;2023-11-19T06:48:02;586.10;;;113.35;;
2762;SDS011;1389;51.490;7.338;2023-11-19T06:50:29;587.90;;;113.40;;
2762;SDS011;1389;51.490;7.338;2023-11-19T06:52:55;589.30;;;112.75;;
2762;SDS011;1389;51.490;7.338;2023-11-19T06:55:22;593.80;;;114.00;;
2762;SDS011;1389;51.490;7.338;2023-11-19T06:57:48;594.78;;;113.55;;
2762;SDS011;1389;51.490;7.338;2023-11-19T07:00:14;596.30;;;114.80;;
2762;SDS011;1389;51.490;7.338;2023-11-19T07:02:42;597.30;;;114.07;;
2762;SDS011;1389;51.490;7.338;2023-11-19T07:05:09;599.00;;;114.70;;
2762;SDS011;1389;51.490;7.338;2023-11-19T07:07:37;600.00;;;113.78;;
2762;SDS011;1389;51.490;7.338;2023-11-19T07:10:05;602.13;;;114.10;;
2762;SDS011;1389;51.490;7.338;2023-11-19T07:12:34;608.27;;;115.27;;
2762;SDS011;1389;51.490;7.338;2023-11-19T07:15:01;607.30;;;114.68;;
2762;SDS011;1389;51.490;7.338;2023-11-19T07:17:30;602.97;;;106.65;;
2762;SDS011;1389;51.490;7.338;2023-11-19T07:19:56;608.45;;;110.63;;
2762;SDS011;1389;51.490;7.338;2023-11-19T07:22:25;611.22;;;110.35;;
2762;SDS011;1389;51.490;7.338;2023-11-19T07:24:52;613.25;;;110.90;;
2762;SDS011;1389;51.490;7.338;2023-11-19T07:27:21;613.22;;;107.03;;
2762;SDS011;1389;51.490;7.338;2023-11-19T07:29:49;616.50;;;109.35;;
2762;SDS011;1389;51.490;7.338;2023-11-19T07:32:16;615.08;;;106.20;;
2762;SDS011;1389;51.490;7.338;2023-11-19T07:34:43;617.63;;;106.53;;
2762;SDS011;1389;51.490;7.338;2023-11-19T07:37:09;619.78;;;106.80;;
2762;SDS011;1389;51.490;7.338;2023-11-19T07:39:36;623.70;;;107.90;;
2762;SDS011;1389;51.490;7.338;2023-11-19T07:42:06;625.70;;;108.30;;
2762;SDS011;1389;51.490;7.338;2023-11-19T07:44:32;626.03;;;107.60;;
2762;SDS011;1389;51.490;7.338;2023-11-19T07:46:59;627.20;;;108.00;;
2762;SDS011;1389;51.490;7.338;2023-11-19T07:49:25;630.30;;;107.50;;
2762;SDS011;1389;51.490;7.338;2023-11-19T07:51:52;633.60;;;110.63;;
2762;SDS011;1389;51.490;7.338;2023-11-19T07:54:18;633.05;;;108.55;;
2762;SDS011;1389;51.490;7.338;2023-11-19T07:56:46;634.90;;;108.70;;
2762;SDS011;1389;51.490;7.338;2023-11-19T07:59:15;636.38;;;109.60;;
2762;SDS011;1389;51.490;7.338;2023-11-19T08:01:41;639.90;;;110.65;;
2762;SDS011;1389;51.490;7.338;2023-11-19T08:04:07;641.40;;;111.00;;
2762;SDS011;1389;51.490;7.338;2023-11-19T08:06:34;643.20;;;110.15;;
2762;SDS011;1389;51.490;7.338;2023-11-19T08:09:00;644.77;;;111.30;;
2762;SDS011;1389;51.490;7.338;2023-11-19T08:11:27;645.00;;;110.90;;
2762;SDS011;1389;51.490;7.338;2023-11-19T08:13:53;646.00;;;111.30;;
2762;SDS011;1389;51.490;7.338;2023-11-19T08:16:19;646.83;;;111.30;;
2762;SDS011;1389;51.490;7.338;2023-11-19T08:18:46;647.50;;;111.30;;
2762;SDS011;1389;51.490;7.338;2023-11-19T08:21:12;648.50;;;111.10;;
2762;SDS011;1389;51.490;7.338;2023-11-19T08:23:39;649.80;;;112.27;;
2762;SDS011;1389;51.490;7.338;2023-11-19T08:26:05;652.00;;;115.17;;
2762;SDS011;1389;51.490;7.338;2023-11-19T08:28:32;649.10;;;111.30;;
2762;SDS011;1389;51.490;7.338;2023-11-19T08:30:59;649.70;;;111.00;;
2762;SDS011;1389;51.490;7.338;2023-11-19T08:33:26;648.60;;;110.20;;
2762;SDS011;1389;51.490;7.338;2023-11-19T08:35:53;648.67;;;110.68;;
2762;SDS011;1389;51.490;7.338;2023-11-19T08:38:19;648.93;;;110.60;;
2762;SDS011;1389;51.490;7.338;2023-11-19T08:40:45;647.40;;;109.50;;
2762;SDS011;1389;51.490;7.338;2023-11-19T08:43:12;647.70;;;110.40;;
2762;SDS011;1389;51.490;7.338;2023-11-19T08:45:38;647.10;;;109.27;;
2762;SDS011;1389;51.490;7.338;2023-11-19T08:48:05;647.50;;;109.80;;
2762;SDS011;1389;51.490;7.338;2023-11-19T08:50:31;647.70;;;110.10;;
2762;SDS011;1389;51.490;7.338;2023-11-19T08:52:58;647.05;;;108.85;;
2762;SDS011;1389;51.490;7.338;2023-11-19T08:55:24;646.63;;;109.40;;
2762;SDS011;1389;51.490;7.338;2023-11-19T08:57:51;647.70;;;108.85;;
2762;SDS011;1389;51.490;7.338;2023-11-19T09:00:18;648.00;;;108.60;;
2762;SDS011;1389;51.490;7.338;2023-11-19T09:02:44;647.70;;;108.80;;
2762;SDS011;1389;51.490;7.338;2023-11-19T09:05:10;647.30;;;108.30;;
2762;SDS011;1389;51.490;7.338;2023-11-19T09:07:38;647.73;;;108.70;;
2762;SDS011;1389;51.490;7.338;2023-11-19T09:10:04;645.92;;;106.90;;
2762;SDS011;1389;51.490;7.338;2023-11-19T09:12:31;644.93;;;106.50;;
2762;SDS011;1389;51.490;7.338;2023-11-19T09:14:57;644.25;;;106.20;;
2762;SDS011;1389;51.490;7.338;2023-11-19T09:17:24;665.67;;;136.85;;
2762;SDS011;1389;51.490;7.338;2023-11-19T09:19:50;644.97;;;107.00;;
2762;SDS011;1389;51.490;7.338;2023-11-19T09:22:16;644.38;;;105.43;;
2762;SDS011;1389;51.490;7.338;2023-11-19T09:24:43;643.20;;;104.68;;
2762;SDS011;1389;51.490;7.338;2023-11-19T09:27:10;642.60;;;104.60;;
2762;SDS011;1389;51.490;7.338;2023-11-19T09:29:37;641.40;;;104.10;;
2762;SDS011;1389;51.490;7.338;2023-11-19T09:32:03;641.10;;;104.30;;
2762;SDS011;1389;51.490;7.338;2023-11-19T09:34:29;641.00;;;103.80;;
2762;SDS011;1389;51.490;7.338;2023-11-19T09:36:57;641.10;;;104.70;;
2762;SDS011;1389;51.490;7.338;2023-11-19T09:39:23;641.00;;;104.25;;
2762;SDS011;1389;51.490;7.338;2023-11-19T09:41:51;639.30;;;103.10;;
2762;SDS011;1389;51.490;7.338;2023-11-19T09:44:17;636.50;;;101.70;;
2762;SDS011;1389;51.490;7.338;2023-11-19T09:46:44;635.70;;;101.70;;
2762;SDS011;1389;51.490;7.338;2023-11-19T09:49:11;632.88;;;100.07;;
2762;SDS011;1389;51.490;7.338;2023-11-19T09:51:39;630.17;;;98.70;;
2762;SDS011;1389;51.490;7.338;2023-11-19T09:54:05;629.42;;;97.03;;
2762;SDS011;1389;51.490;7.338;2023-11-19T09:56:32;629.90;;;97.30;;
2762;SDS011;1389;51.490;7.338;2023-11-19T09:58:59;628.03;;;96.10;;
2762;SDS011;1389;51.490;7.338;2023-11-19T10:01:25;630.22;;;98.28;;
2762;SDS011;1389;51.490;7.338;2023-11-19T10:03:52;630.90;;;95.40;;
2762;SDS011;1389;51.490;7.338;2023-11-19T10:06:19;630.28;;;95.07;;
2762;SDS011;1389;51.490;7.338;2023-11-19T10:08:46;630.00;;;94.60;;
2762;SDS011;1389;51.490;7.338;2023-11-19T10:11:12;629.38;;;94.13;;
2762;SDS011;1389;51.490;7.338;2023-11-19T10:13:40;628.00;;;93.10;;
2762;SDS011;1389;51.490;7.338;2023-11-19T10:16:08;626.65;;;92.25;;
2762;SDS011;1389;51.490;7.338;2023-11-19T10:18:37;627.83;;;93.47;;
2762;SDS011;1389;51.490;7.338;2023-11-19T10:21:06;626.50;;;93.10;;
2762;SDS011;1389;51.490;7.338;2023-11-19T10:23:47;624.80;;;91.30;;
2762;SDS011;1389;51.490;7.338;2023-11-19T10:26:14;622.00;;;89.50;;
2762;SDS011;1389;51.490;7.338;2023-11-19T10:28:41;620.80;;;89.10;;
2762;SDS011;1389;51.490;7.338;2023-11-19T10:31:09;618.67;;;87.90;;
2762;SDS011;1389;51.490;7.338;2023-11-19T10:33:36;619.20;;;87.10;;
2762;SDS011;1389;51.490;7.338;2023-11-19T10:36:02;619.33;;;86.40;;
2762;SDS011;1389;51.490;7.338;2023-11-19T10:38:28;619.80;;;87.05;;
2762;SDS011;1389;51.490;7.338;2023-11-19T10:40:56;619.03;;;85.93;;
2762;SDS011;1389;51.490;7.338;2023-11-19T10:43:23;620.10;;;87.47;;
2762;SDS011;1389;51.490;7.338;2023-11-19T10:45:50;619.00;;;85.40;;
2762;SDS011;1389;51.490;7.338;2023-11-19T10:48:16;619.70;;;86.10;;
2762;SDS011;1389;51.490;7.338;2023-11-19T10:50:44;636.40;;;112.32;;
2762;SDS011;1389;51.490;7.338;2023-11-19T10:53:11;615.03;;;82.22;;
2762;SDS011;1389;51.490;7.338;2023-11-19T10:55:44;617.30;;;82.20;;
2762;SDS011;1389;51.490;7.338;2023-11-19T10:58:13;618.53;;;83.38;;
2762;SDS011;1389;51.490;7.338;2023-11-19T11:00:46;617.60;;;83.50;;
2762;SDS011;1389;51.490;7.338;2023-11-19T11:03:17;616.60;;;81.97;;
2762;SDS011;1389;51.490;7.338;2023-11-19T11:05:43;617.10;;;83.30;;
2762;SDS011;1389;51.490;7.338;2023-11-19T11:08:13;618.40;;;84.67;;
2762;SDS011;1389;51.490;7.338;2023-11-19T11:10:42;617.80;;;85.78;;
2762;SDS011;1389;51.490;7.338;2023-11-19T11:13:09;616.58;;;82.22;;
2762;SDS011;1389;51.490;7.338;2023-11-19T11:15:37;618.38;;;84.38;;
2762;SDS011;1389;51.490;7.338;2023-11-19T11:18:04;617.90;;;82.40;;
2762;SDS011;1389;51.490;7.338;2023-11-19T11:20:33;616.17;;;82.03;;
2762;SDS011;1389;51.490;7.338;2023-11-19T11:23:08;617.10;;;87.43;;
2762;SDS011;1389;51.490;7.338;2023-11-19T11:25:47;612.20;;;80.05;;
2762;SDS011;1389;51.490;7.338;2023-11-19T11:28:26;610.55;;;79.55;;
2762;SDS011;1389;51.490;7.338;2023-11-19T11:33:36;616.55;;;95.25;;
2762;SDS011;1389;51.490;7.338;2023-11-19T11:36:12;605.42;;;77.90;;
2762;SDS011;1389;51.490;7.338;2023-11-19T11:38:40;601.40;;;75.20;;
2762;SDS011;1389;51.490;7.338;2023-11-19T11:41:20;600.97;;;76.07;;
2762;SDS011;1389;51.490;7.338;2023-11-19T11:43:48;600.20;;;75.00;;
2762;SDS011;1389;51.490;7.338;2023-11-19T11:49:01;599.53;;;75.32;;
2762;SDS011;1389;51.490;7.338;2023-11-19T11:54:10;597.38;;;76.75;;
2762;SDS011;1389;51.490;7.338;2023-11-19T11:56:36;623.80;;;130.20;;
2762;SDS011;1389;51.490;7.338;2023-11-19T11:59:07;589.33;;;70.80;;
2762;SDS011;1389;51.490;7.338;2023-11-19T12:01:33;584.08;;;67.50;;
2762;SDS011;1389;51.490;7.338;2023-11-19T12:04:01;581.22;;;66.90;;
2762;SDS011;1389;51.490;7.338;2023-11-19T12:06:27;578.10;;;65.70;;
2762;SDS011;1389;51.490;7.338;2023-11-19T12:08:59;572.78;;;62.65;;
2762;SDS011;1389;51.490;7.338;2023-11-19T12:11:25;569.03;;;61.50;;
2762;SDS011;1389;51.490;7.338;2023-11-19T12:13:54;564.95;;;60.92;;
2762;SDS011;1389;51.490;7.338;2023-11-19T12:16:23;562.05;;;65.10;;
2762;SDS011;1389;51.490;7.338;2023-11-19T12:18:50;555.13;;;58.50;;
2762;SDS011;1389;51.490;7.338;2023-11-19T12:21:29;559.75;;;66.45;;
2762;SDS011;1389;51.490;7.338;2023-11-19T12:23:57;554.17;;;58.23;;
2762;SDS011;1389;51.490;7.338;2023-11-19T12:26:47;555.92;;;60.92;;
2762;SDS011;1389;51.490;7.338;2023-11-19T12:29:16;552.47;;;57.00;;
2762;SDS011;1389;51.490;7.338;2023-11-19T12:31:53;552.40;;;57.00;;
2762;SDS011;1389;51.490;7.338;2023-11-19T12:34:20;553.00;;;60.03;;
2762;SDS011;1389;51.490;7.338;2023-11-19T12:36:48;550.53;;;57.67;;
2762;SDS011;1389;51.490;7.338;2023-11-19T12:39:15;547.78;;;55.90;;
2762;SDS011;1389;51.490;7.338;2023-11-19T12:41:51;550.80;;;63.50;;
2762;SDS011;1389;51.490;7.338;2023-11-19T12:44:17;550.15;;;63.65;;
2762;SDS011;1389;51.490;7.338;2023-11-19T12:46:44;545.80;;;55.13;;
2762;SDS011;1389;51.490;7.338;2023-11-19T12:49:11;545.40;;;56.70;;
2762;SDS011;1389;51.490;7.338;2023-11-19T12:51:37;614.10;;;192.55;;
2762;SDS011;1389;51.490;7.338;2023-11-19T12:54:03;549.30;;;56.78;;
2762;SDS011;1389;51.490;7.338;2023-11-19T12:56:30;611.67;;;184.60;;
2762;SDS011;1389;51.490;7.338;2023-11-19T12:58:56;550.90;;;61.80;;
2762;SDS011;1389;51.490;7.338;2023-11-19T13:01:23;546.35;;;55.40;;
2762;SDS011;1389;51.490;7.338;2023-11-19T13:03:49;548.13;;;55.85;;
2762;SDS011;1389;51.490;7.338;2023-11-19T13:06:16;576.00;;;120.25;;
2762;SDS011;1389;51.490;7.338;2023-11-19T13:08:45;547.70;;;56.95;;
2762;SDS011;1389;51.490;7.338;2023-11-19T13:11:14;552.30;;;58.20;;
2762;SDS011;1389;51.490;7.338;2023-11-19T13:16:27;576.55;;;63.60;;
2762;SDS011;1389;51.490;7.338;2023-11-19T13:18:53;588.70;;;67.72;;
2762;SDS011;1389;51.490;7.338;2023-11-19T13:21:20;601.08;;;72.50;;
2762;SDS011;1389;51.490;7.338;2023-11-19T13:23:46;616.10;;;80.00;;
2762;SDS011;1389;51.490;7.338;2023-11-19T13:26:13;627.90;;;84.70;;
2762;SDS011;1389;51.490;7.338;2023-11-19T13:28:39;638.50;;;89.07;;
2762;SDS011;1389;51.490;7.338;2023-11-19T13:31:06;646.67;;;92.45;;
2762;SDS011;1389;51.490;7.338;2023-11-19T13:33:33;654.13;;;96.95;;
2762;SDS011;1389;51.490;7.338;2023-11-19T13:35:59;659.75;;;98.68;;
2762;SDS011;1389;51.490;7.338;2023-11-19T13:38:34;665.35;;;103.60;;
2762;SDS011;1389;51.490;7.338;2023-11-19T13:41:01;668.60;;;103.70;;
2762;SDS011;1389;51.490;7.338;2023-11-19T13:43:28;670.50;;;104.22;;
2762;SDS011;1389;51.490;7.338;2023-11-19T13:45:55;671.90;;;105.60;;
2762;SDS011;1389;51.490;7.338;2023-11-19T13:48:21;671.20;;;104.57;;
2762;SDS011;1389;51.490;7.338;2023-11-19T13:50:48;669.80;;;104.00;;
2762;SDS011;1389;51.490;7.338;2023-11-19T13:53:15;686.10;;;131.13;;
2762;SDS011;1389;51.490;7.338;2023-11-19T13:55:42;667.90;;;104.97;;
2762;SDS011;1389;51.490;7.338;2023-11-19T13:58:09;665.83;;;102.90;;
2762;SDS011;1389;51.490;7.338;2023-11-19T14:00:36;665.40;;;104.18;;
2762;SDS011;1389;51.490;7.338;2023-11-19T14:03:02;663.10;;;101.30;;
2762;SDS011;1389;51.490;7.338;2023-11-19T14:05:29;662.63;;;101.95;;
2762;SDS011;1389;51.490;7.338;2023-11-19T14:07:55;664.70;;;106.50;;
2762;SDS011;1389;51.490;7.338;2023-11-19T14:10:22;662.08;;;104.57;;
2762;SDS011;1389;51.490;7.338;2023-11-19T14:12:48;659.50;;;100.10;;
2762;SDS011;1389;51.490;7.338;2023-11-19T14:15:15;658.90;;;99.70;;
2762;SDS011;1389;51.490;7.338;2023-11-19T14:17:45;658.50;;;100.30;;
2762;SDS011;1389;51.490;7.338;2023-11-19T14:20:11;658.33;;;100.03;;
2762;SDS011;1389;51.490;7.338;2023-11-19T14:22:42;670.10;;;120.97;;
2762;SDS011;1389;51.490;7.338;2023-11-19T14:25:09;656.70;;;98.70;;
2762;SDS011;1389;51.490;7.338;2023-11-19T14:27:36;656.10;;;98.20;;
2762;SDS011;1389;51.490;7.338;2023-11-19T14:30:04;655.50;;;97.90;;
2762;SDS011;1389;51.490;7.338;2023-11-19T14:32:31;656.67;;;98.40;;
2762;SDS011;1389;51.490;7.338;2023-11-19T14:34:57;656.88;;;98.47;;
2762;SDS011;1389;51.490;7.338;2023-11-19T14:37:24;657.00;;;98.63;;
2762;SDS011;1389;51.490;7.338;2023-11-19T14:39:50;656.88;;;98.68;;